createdAt,value
2023-02-15T00:00:50.471Z,2.31
2023-02-15T00:01:50.453Z,2.24
2023-02-15T00:02:50.439Z,2.12
2023-02-15T00:03:50.391Z,2.02
2023-02-15T00:04:50.364Z,2.15
2023-02-15T00:05:50.335Z,2.52
2023-02-15T00:06:50.306Z,2.52
2023-02-15T00:07:50.272Z,2.38
2023-02-15T00:08:50.242Z,1.97
2023-02-15T00:09:50.223Z,2.11
2023-02-15T00:10:50.192Z,2.17
2023-02-15T00:11:50.152Z,2.17
2023-02-15T00:12:50.125Z,2.20
2023-02-15T00:13:50.099Z,2.23
2023-02-15T00:14:50.066Z,2.11
2023-02-15T00:15:50.032Z,2.11
2023-02-15T00:16:49.991Z,2.14
2023-02-15T00:17:49.954Z,2.19
2023-02-15T00:18:49.917Z,2.37
2023-02-15T00:19:49.889Z,1.96
2023-02-15T00:20:49.855Z,2.14
2023-02-15T00:21:49.811Z,2.21
2023-02-15T00:22:49.769Z,2.15
2023-02-15T00:23:49.746Z,1.97
2023-02-15T00:24:49.699Z,2.14
2023-02-15T00:25:49.664Z,2.32
2023-02-15T00:26:49.640Z,2.39
2023-02-15T00:27:49.600Z,2.32
2023-02-15T00:28:49.574Z,2.22
2023-02-15T00:29:49.598Z,2.72
2023-02-15T00:30:49.621Z,2.07
2023-02-15T00:31:49.550Z,2.12
2023-02-15T00:32:49.464Z,2.15
2023-02-15T00:33:49.414Z,2.00
2023-02-15T00:34:49.379Z,2.21
2023-02-15T00:35:49.362Z,1.74
2023-02-15T00:36:49.317Z,1.80
2023-02-15T00:37:49.305Z,2.50
2023-02-15T00:38:49.250Z,2.27
2023-02-15T00:39:49.214Z,2.55
2023-02-15T00:40:49.180Z,2.45
2023-02-15T00:41:49.162Z,2.34
2023-02-15T00:42:49.118Z,2.08
2023-02-15T00:43:49.078Z,2.13
2023-02-15T00:44:49.064Z,2.10
2023-02-15T00:45:49.066Z,1.93
2023-02-15T00:46:48.992Z,2.13
2023-02-15T00:47:48.949Z,1.94
2023-02-15T00:48:48.921Z,2.08
2023-02-15T00:49:48.883Z,2.29
2023-02-15T00:50:48.866Z,2.40
2023-02-15T00:51:48.825Z,2.45
2023-02-15T00:52:48.791Z,2.24
2023-02-15T00:53:48.755Z,2.06
2023-02-15T00:54:48.735Z,2.05
2023-02-15T00:55:48.710Z,1.80
2023-02-15T00:56:48.679Z,2.29
2023-02-15T00:57:48.642Z,1.81
2023-02-15T00:58:48.602Z,2.32
2023-02-15T00:59:48.580Z,1.87
2023-02-15T01:00:48.550Z,2.18
2023-02-15T01:01:48.507Z,2.14
2023-02-15T01:02:48.481Z,2.08
2023-02-15T01:03:48.450Z,1.92
2023-02-15T01:04:48.423Z,1.91
2023-02-15T01:05:48.393Z,1.81
2023-02-15T01:06:48.350Z,2.19
2023-02-15T01:07:48.305Z,2.32
2023-02-15T01:08:48.301Z,1.78
2023-02-15T01:09:48.259Z,2.14
2023-02-15T01:10:48.223Z,1.89
2023-02-15T01:11:48.167Z,2.16
2023-02-15T01:12:48.128Z,2.32
2023-02-15T01:13:48.103Z,1.88
2023-02-15T01:14:48.062Z,2.01
2023-02-15T01:15:48.190Z,1.55
2023-02-15T01:16:47.999Z,2.30
2023-02-15T01:17:47.945Z,1.49
2023-02-15T01:18:47.922Z,1.95
2023-02-15T01:19:47.883Z,2.09
2023-02-15T01:20:47.841Z,1.91
2023-02-15T01:21:47.805Z,1.79
2023-02-15T01:22:47.761Z,2.12
2023-02-15T01:23:47.732Z,2.15
2023-02-15T01:24:47.685Z,2.30
2023-02-15T01:25:47.649Z,1.95
2023-02-15T01:26:47.600Z,1.77
2023-02-15T01:27:47.565Z,2.39
2023-02-15T01:28:47.533Z,2.18
2023-02-15T01:29:47.508Z,1.91
2023-02-15T01:30:47.573Z,1.88
2023-02-15T01:31:47.554Z,2.04
2023-02-15T01:32:47.390Z,1.94
2023-02-15T01:33:47.351Z,1.85
2023-02-15T01:34:47.326Z,1.51
2023-02-15T01:35:47.280Z,2.03
2023-02-15T01:36:47.241Z,2.02
2023-02-15T01:37:47.202Z,2.17
2023-02-15T01:38:47.164Z,2.13
2023-02-15T01:39:47.142Z,1.89
2023-02-15T01:40:47.130Z,2.12
2023-02-15T01:41:47.089Z,1.52
2023-02-15T01:42:47.049Z,1.79
2023-02-15T01:43:47.031Z,1.74
2023-02-15T01:44:47.021Z,1.71
2023-02-15T01:45:46.999Z,1.99
2023-02-15T01:46:46.954Z,1.58
2023-02-15T01:47:46.923Z,2.37
2023-02-15T01:48:46.885Z,1.99
2023-02-15T01:49:46.858Z,1.93
2023-02-15T01:50:46.843Z,1.93
2023-02-15T01:51:46.818Z,1.91
2023-02-15T01:52:46.775Z,1.87
2023-02-15T01:53:46.760Z,2.28
2023-02-15T01:54:46.726Z,1.99
2023-02-15T01:55:46.682Z,1.74
2023-02-15T01:56:46.655Z,1.89
2023-02-15T01:57:46.618Z,1.72
2023-02-15T01:58:46.605Z,1.73
2023-02-15T01:59:46.571Z,1.87
2023-02-15T02:00:46.552Z,1.80
2023-02-15T02:01:46.536Z,1.91
2023-02-15T02:02:46.522Z,1.78
2023-02-15T02:03:46.456Z,1.90
2023-02-15T02:04:46.445Z,1.86
2023-02-15T02:05:46.394Z,1.94
2023-02-15T02:06:46.384Z,1.82
2023-02-15T02:07:46.345Z,1.87
2023-02-15T02:08:46.328Z,1.64
2023-02-15T02:09:46.303Z,1.97
2023-02-15T02:10:46.262Z,1.83
2023-02-15T02:11:46.228Z,1.63
2023-02-15T02:12:46.204Z,1.90
2023-02-15T02:13:46.166Z,1.92
2023-02-15T02:14:46.148Z,1.54
2023-02-15T02:15:46.136Z,2.04
2023-02-15T02:16:46.089Z,1.43
2023-02-15T02:17:46.059Z,1.90
2023-02-15T02:18:46.041Z,1.82
2023-02-15T02:19:46.014Z,1.54
2023-02-15T02:20:45.975Z,1.63
2023-02-15T02:21:45.995Z,1.71
2023-02-15T02:22:45.928Z,1.59
2023-02-15T02:23:45.902Z,1.69
2023-02-15T02:24:45.874Z,2.15
2023-02-15T02:25:45.842Z,1.58
2023-02-15T02:26:45.816Z,1.66
2023-02-15T02:27:45.799Z,2.04
2023-02-15T02:28:45.763Z,1.66
2023-02-15T02:29:45.722Z,1.60
2023-02-15T02:30:45.742Z,1.65
2023-02-15T02:31:45.768Z,2.03
2023-02-15T02:32:45.649Z,1.76
2023-02-15T02:33:45.614Z,1.98
2023-02-15T02:34:45.583Z,1.67
2023-02-15T02:35:45.553Z,1.60
2023-02-15T02:36:45.529Z,2.11
2023-02-15T02:37:45.511Z,1.72
2023-02-15T02:38:45.479Z,1.41
2023-02-15T02:39:45.453Z,1.78
2023-02-15T02:40:45.419Z,1.59
2023-02-15T02:41:45.394Z,1.85
2023-02-15T02:42:45.392Z,1.48
2023-02-15T02:43:45.334Z,1.73
2023-02-15T02:44:45.328Z,1.85
2023-02-15T02:45:45.287Z,1.77
2023-02-15T02:46:45.295Z,1.55
2023-02-15T02:47:45.196Z,1.78
2023-02-15T02:48:45.165Z,1.94
2023-02-15T02:49:45.143Z,1.68
2023-02-15T02:50:45.097Z,1.50
2023-02-15T02:51:45.062Z,1.89
2023-02-15T02:52:45.028Z,1.62
2023-02-15T02:53:45.005Z,1.79
2023-02-15T02:54:44.951Z,1.89
2023-02-15T02:55:44.934Z,1.24
2023-02-15T02:56:44.899Z,1.59
2023-02-15T02:57:44.871Z,1.93
2023-02-15T02:58:44.837Z,1.60
2023-02-15T02:59:44.802Z,1.41
2023-02-15T03:00:44.805Z,1.68
2023-02-15T03:01:44.814Z,1.72
2023-02-15T03:02:44.838Z,1.99
2023-02-15T03:03:44.680Z,1.68
2023-02-15T03:04:44.651Z,1.67
2023-02-15T03:05:44.618Z,1.96
2023-02-15T03:06:44.586Z,1.87
2023-02-15T03:07:44.558Z,1.46
2023-02-15T03:08:44.529Z,1.73
2023-02-15T03:09:44.497Z,1.62
2023-02-15T03:10:44.480Z,1.72
2023-02-15T03:11:44.449Z,1.53
2023-02-15T03:12:44.414Z,1.54
2023-02-15T03:13:44.378Z,1.55
2023-02-15T03:14:44.349Z,1.82
2023-02-15T03:15:44.338Z,2.13
2023-02-15T03:16:44.291Z,1.88
2023-02-15T03:17:44.252Z,1.48
2023-02-15T03:18:44.228Z,1.51
2023-02-15T03:19:44.195Z,1.52
2023-02-15T03:20:44.160Z,1.41
2023-02-15T03:21:44.130Z,1.45
2023-02-15T03:22:44.104Z,1.59
2023-02-15T03:23:44.060Z,1.86
2023-02-15T03:24:44.036Z,1.86
2023-02-15T03:25:43.999Z,1.41
2023-02-15T03:26:43.963Z,1.36
2023-02-15T03:27:43.935Z,1.61
2023-02-15T03:28:43.904Z,1.72
2023-02-15T03:29:43.865Z,1.94
2023-02-15T03:30:43.864Z,1.77
2023-02-15T03:31:43.950Z,1.74
2023-02-15T03:32:43.779Z,2.03
2023-02-15T03:33:43.775Z,2.02
2023-02-15T03:34:43.754Z,1.85
2023-02-15T03:35:43.708Z,1.57
2023-02-15T03:36:43.678Z,1.54
2023-02-15T03:37:43.646Z,1.71
2023-02-15T03:38:43.616Z,1.62
2023-02-15T03:39:43.605Z,1.46
2023-02-15T03:40:43.564Z,1.86
2023-02-15T03:41:43.546Z,1.81
2023-02-15T03:42:43.512Z,1.62
2023-02-15T03:43:43.482Z,1.51
2023-02-15T03:44:43.451Z,1.61
2023-02-15T03:45:43.424Z,1.35
2023-02-15T03:46:43.477Z,1.50
2023-02-15T03:47:43.361Z,1.43
2023-02-15T03:48:43.351Z,1.55
2023-02-15T03:49:43.302Z,1.33
2023-02-15T03:50:43.290Z,1.54
2023-02-15T03:51:43.247Z,1.64
2023-02-15T03:52:43.218Z,1.70
2023-02-15T03:53:43.191Z,1.39
2023-02-15T03:54:43.161Z,1.68
2023-02-15T03:55:43.120Z,1.65
2023-02-15T03:56:43.113Z,1.61
2023-02-15T03:57:43.059Z,1.42
2023-02-15T03:58:43.057Z,1.54
2023-02-15T03:59:42.998Z,1.54
2023-02-15T04:00:43.144Z,1.72
2023-02-15T04:01:42.936Z,1.63
2023-02-15T04:02:42.941Z,2.02
2023-02-15T04:03:42.890Z,1.73
2023-02-15T04:04:42.878Z,1.74
2023-02-15T04:05:42.829Z,1.40
2023-02-15T04:06:42.807Z,1.45
2023-02-15T04:07:42.777Z,1.38
2023-02-15T04:08:42.749Z,1.58
2023-02-15T04:09:42.729Z,1.23
2023-02-15T04:10:42.702Z,1.42
2023-02-15T04:11:42.663Z,1.98
2023-02-15T04:12:42.645Z,1.55
2023-02-15T04:13:42.616Z,1.62
2023-02-15T04:14:42.596Z,1.72
2023-02-15T04:15:42.573Z,1.68
2023-02-15T04:16:42.571Z,1.63
2023-02-15T04:17:42.518Z,1.33
2023-02-15T04:18:42.502Z,1.63
2023-02-15T04:19:42.470Z,1.70
2023-02-15T04:20:42.446Z,1.49
2023-02-15T04:21:42.421Z,1.56
2023-02-15T04:22:42.403Z,1.58
2023-02-15T04:23:42.402Z,1.59
2023-02-15T04:24:42.357Z,1.83
2023-02-15T04:25:42.339Z,1.32
2023-02-15T04:26:42.311Z,1.36
2023-02-15T04:27:42.282Z,1.77
2023-02-15T04:28:42.253Z,1.61
2023-02-15T04:29:42.229Z,1.42
2023-02-15T04:30:42.205Z,1.63
2023-02-15T04:31:42.321Z,1.52
2023-02-15T04:32:42.148Z,1.42
2023-02-15T04:33:42.115Z,1.62
2023-02-15T04:34:42.084Z,1.53
2023-02-15T04:35:42.068Z,1.41
2023-02-15T04:36:42.051Z,1.56
2023-02-15T04:37:42.048Z,1.67
2023-02-15T04:38:42.017Z,1.45
2023-02-15T04:39:42.002Z,1.19
2023-02-15T04:40:41.963Z,1.46
2023-02-15T04:41:41.897Z,1.42
2023-02-15T04:42:41.938Z,1.82
2023-02-15T04:43:41.890Z,1.49
2023-02-15T04:44:41.880Z,1.79
2023-02-15T04:45:41.946Z,1.47
2023-02-15T04:46:41.867Z,1.67
2023-02-15T04:47:41.765Z,1.60
2023-02-15T04:48:41.736Z,1.65
2023-02-15T04:49:41.705Z,1.80
2023-02-15T04:50:41.677Z,1.76
2023-02-15T04:51:41.666Z,1.39
2023-02-15T04:52:41.642Z,1.37
2023-02-15T04:53:41.619Z,1.35
2023-02-15T04:54:41.602Z,1.94
2023-02-15T04:55:41.574Z,1.69
2023-02-15T04:56:41.550Z,1.51
2023-02-15T04:57:41.526Z,1.21
2023-02-15T04:58:41.498Z,1.69
2023-02-15T04:59:41.474Z,1.24
2023-02-15T05:00:41.440Z,1.54
2023-02-15T05:01:41.420Z,1.34
2023-02-15T05:02:41.378Z,1.92
2023-02-15T05:03:41.357Z,1.58
2023-02-15T05:04:41.323Z,1.61
2023-02-15T05:05:41.311Z,1.40
2023-02-15T05:06:41.264Z,1.47
2023-02-15T05:07:41.247Z,1.56
2023-02-15T05:08:41.229Z,1.96
2023-02-15T05:09:41.204Z,1.69
2023-02-15T05:10:41.171Z,1.61
2023-02-15T05:11:41.156Z,1.70
2023-02-15T05:12:41.123Z,1.37
2023-02-15T05:13:41.123Z,1.68
2023-02-15T05:14:41.084Z,1.60
2023-02-15T05:15:41.048Z,1.75
2023-02-15T05:16:41.060Z,1.28
2023-02-15T05:17:40.994Z,1.69
2023-02-15T05:18:40.969Z,1.60
2023-02-15T05:19:40.953Z,1.30
2023-02-15T05:20:40.941Z,1.50
2023-02-15T05:21:40.897Z,1.54
2023-02-15T05:22:40.874Z,1.32
2023-02-15T05:23:40.863Z,1.62
2023-02-15T05:24:40.834Z,1.96
2023-02-15T05:25:40.805Z,1.77
2023-02-15T05:26:40.792Z,1.40
2023-02-15T05:27:40.770Z,1.50
2023-02-15T05:28:40.737Z,1.49
2023-02-15T05:29:40.723Z,1.65
2023-02-15T05:30:40.936Z,1.56
2023-02-15T05:31:40.953Z,1.74
2023-02-15T05:32:40.840Z,1.46
2023-02-15T05:33:40.682Z,1.75
2023-02-15T05:34:40.673Z,1.44
2023-02-15T05:35:40.671Z,1.59
2023-02-15T05:36:40.654Z,1.58
2023-02-15T05:37:40.632Z,1.58
2023-02-15T05:38:40.628Z,1.58
2023-02-15T05:39:40.596Z,1.81
2023-02-15T05:40:40.591Z,1.51
2023-02-15T05:41:40.587Z,1.90
2023-02-15T05:42:40.554Z,1.89
2023-02-15T05:43:40.543Z,1.44
2023-02-15T05:44:40.525Z,1.64
2023-02-15T05:45:40.537Z,1.79
2023-02-15T05:46:40.462Z,1.62
2023-02-15T05:47:40.430Z,2.05
2023-02-15T05:48:40.411Z,2.06
2023-02-15T05:49:40.376Z,2.12
2023-02-15T05:50:40.368Z,2.47
2023-02-15T05:51:40.340Z,2.52
2023-02-15T05:52:40.299Z,2.58
2023-02-15T05:53:40.284Z,2.19
2023-02-15T05:54:40.259Z,1.92
2023-02-15T05:55:40.238Z,1.65
2023-02-15T05:56:40.210Z,2.01
2023-02-15T05:57:40.177Z,1.85
2023-02-15T05:58:40.154Z,1.91
2023-02-15T05:59:40.144Z,2.08
2023-02-15T06:00:40.086Z,1.72
2023-02-15T06:01:40.070Z,1.91
2023-02-15T06:02:40.073Z,1.99
2023-02-15T06:03:40.052Z,1.48
2023-02-15T06:04:39.989Z,1.81
2023-02-15T06:05:39.952Z,1.91
2023-02-15T06:06:39.943Z,1.70
2023-02-15T06:07:39.880Z,1.95
2023-02-15T06:08:39.883Z,2.33
2023-02-15T06:09:39.824Z,2.36
2023-02-15T06:10:39.813Z,1.92
2023-02-15T06:11:39.750Z,1.79
2023-02-15T06:12:39.721Z,1.97
2023-02-15T06:13:39.691Z,1.69
2023-02-15T06:14:39.646Z,2.29
2023-02-15T06:15:39.721Z,1.93
2023-02-15T06:16:39.589Z,1.94
2023-02-15T06:17:39.560Z,2.02
2023-02-15T06:18:39.528Z,2.11
2023-02-15T06:19:39.493Z,2.10
2023-02-15T06:20:39.474Z,1.93
2023-02-15T06:21:39.431Z,1.94
2023-02-15T06:22:39.396Z,1.79
2023-02-15T06:23:39.365Z,1.99
2023-02-15T06:24:39.320Z,2.01
2023-02-15T06:25:40.031Z,1.89
2023-02-15T06:26:39.302Z,1.49
2023-02-15T06:27:39.237Z,1.67
2023-02-15T06:28:39.205Z,1.93
2023-02-15T06:29:39.170Z,1.82
2023-02-15T06:30:39.141Z,2.00
2023-02-15T06:31:39.206Z,1.76
2023-02-15T06:32:39.073Z,2.06
2023-02-15T06:33:39.038Z,2.00
2023-02-15T06:34:39.017Z,1.91
2023-02-15T06:35:38.986Z,1.94
2023-02-15T06:36:38.951Z,2.27
2023-02-15T06:37:38.909Z,1.54
2023-02-15T06:38:38.863Z,1.74
2023-02-15T06:39:38.854Z,1.71
2023-02-15T06:40:38.809Z,1.74
2023-02-15T06:41:38.863Z,1.68
2023-02-15T06:42:38.757Z,1.75
2023-02-15T06:43:40.868Z,1.97
2023-02-15T06:44:38.668Z,1.30
2023-02-15T06:45:38.647Z,1.73
2023-02-15T06:46:38.683Z,1.84
2023-02-15T06:47:38.573Z,1.72
2023-02-15T06:48:38.536Z,1.78
2023-02-15T06:49:38.526Z,2.12
2023-02-15T06:50:38.500Z,1.92
2023-02-15T06:51:38.458Z,1.77
2023-02-15T06:52:38.426Z,1.85
2023-02-15T06:53:38.431Z,1.87
2023-02-15T06:54:38.479Z,1.83
2023-02-15T06:55:38.503Z,1.97
2023-02-15T06:56:38.553Z,1.77
2023-02-15T06:57:38.576Z,2.13
2023-02-15T06:58:38.609Z,2.10
2023-02-15T06:59:38.634Z,1.47
2023-02-15T07:00:38.660Z,1.66
2023-02-15T07:01:39.669Z,1.78
2023-02-15T07:02:38.675Z,1.86
2023-02-15T07:03:38.640Z,1.46
2023-02-15T07:04:38.629Z,2.32
2023-02-15T07:05:38.583Z,1.62
2023-02-15T07:06:38.546Z,1.65
2023-02-15T07:07:38.517Z,2.14
2023-02-15T07:08:38.481Z,1.94
2023-02-15T07:09:38.546Z,1.92
2023-02-15T07:10:38.534Z,2.35
2023-02-15T07:11:38.564Z,1.66
2023-02-15T07:12:38.591Z,1.95
2023-02-15T07:13:38.645Z,1.98
2023-02-15T07:14:38.656Z,2.13
2023-02-15T07:15:38.722Z,2.00
2023-02-15T07:16:38.729Z,1.94
2023-02-15T07:17:38.838Z,1.97
2023-02-15T07:18:38.803Z,1.93
2023-02-15T07:19:38.836Z,1.83
2023-02-15T07:20:38.876Z,2.15
2023-02-15T07:21:38.913Z,1.85
2023-02-15T07:22:38.973Z,1.98
2023-02-15T07:23:38.977Z,2.20
2023-02-15T07:24:39.013Z,1.91
2023-02-15T07:25:39.051Z,2.22
2023-02-15T07:26:39.097Z,1.95
2023-02-15T07:27:39.136Z,1.76
2023-02-15T07:28:39.169Z,2.14
2023-02-15T07:29:39.180Z,1.82
2023-02-15T07:30:39.247Z,2.13
2023-02-15T07:31:39.269Z,1.94
2023-02-15T07:32:39.423Z,2.06
2023-02-15T07:33:39.344Z,2.06
2023-02-15T07:34:39.380Z,2.10
2023-02-15T07:35:39.405Z,1.95
2023-02-15T07:36:39.442Z,2.14
2023-02-15T07:37:39.496Z,1.88
2023-02-15T07:38:39.529Z,1.89
2023-02-15T07:39:39.556Z,1.98
2023-02-15T07:40:39.582Z,2.31
2023-02-15T07:41:39.611Z,1.95
2023-02-15T07:42:39.659Z,1.96
2023-02-15T07:43:39.708Z,2.05
2023-02-15T07:44:39.748Z,2.02
2023-02-15T07:45:39.769Z,2.53
2023-02-15T07:46:39.855Z,2.09
2023-02-15T07:47:39.852Z,1.87
2023-02-15T07:48:39.869Z,1.72
2023-02-15T07:49:39.919Z,1.96
2023-02-15T07:50:39.939Z,1.99
2023-02-15T07:51:39.993Z,1.91
2023-02-15T07:52:40.033Z,2.20
2023-02-15T07:53:40.069Z,2.32
2023-02-15T07:54:40.136Z,2.25
2023-02-15T07:55:40.078Z,2.41
2023-02-15T07:56:40.746Z,2.56
2023-02-15T07:57:40.058Z,2.18
2023-02-15T07:58:39.991Z,1.76
2023-02-15T07:59:39.975Z,2.18
2023-02-15T08:00:39.937Z,1.82
2023-02-15T08:01:39.911Z,2.22
2023-02-15T08:02:40.021Z,2.67
2023-02-15T08:03:39.902Z,2.36
2023-02-15T08:04:39.844Z,2.63
2023-02-15T08:05:39.807Z,3.08
2023-02-15T08:06:39.777Z,2.57
2023-02-15T08:07:39.746Z,2.43
2023-02-15T08:08:39.718Z,2.62
2023-02-15T08:09:39.684Z,2.63
2023-02-15T08:10:39.670Z,2.27
2023-02-15T08:11:39.647Z,2.38
2023-02-15T08:12:39.608Z,2.78
2023-02-15T08:13:39.589Z,2.44
2023-02-15T08:14:39.548Z,2.16
2023-02-15T08:15:39.524Z,1.84
2023-02-15T08:16:39.607Z,2.31
2023-02-15T08:17:39.458Z,2.02
2023-02-15T08:18:39.428Z,2.34
2023-02-15T08:19:39.427Z,2.71
2023-02-15T08:20:39.364Z,2.62
2023-02-15T08:21:39.336Z,2.30
2023-02-15T08:22:39.331Z,2.64
2023-02-15T08:23:39.278Z,2.42
2023-02-15T08:24:39.295Z,2.76
2023-02-15T08:25:39.229Z,2.37
2023-02-15T08:26:41.622Z,3.03
2023-02-15T08:27:39.160Z,2.87
2023-02-15T08:28:39.913Z,2.67
2023-02-15T08:29:39.099Z,2.89
2023-02-15T08:30:39.074Z,2.90
2023-02-15T08:31:39.128Z,2.75
2023-02-15T08:32:39.009Z,2.62
2023-02-15T08:33:38.974Z,2.24
2023-02-15T08:34:38.940Z,2.88
2023-02-15T08:35:38.959Z,2.46
2023-02-15T08:36:38.907Z,3.18
2023-02-15T08:37:38.840Z,3.14
2023-02-15T08:38:38.811Z,3.18
2023-02-15T08:39:38.778Z,3.19
2023-02-15T08:40:38.742Z,2.85
2023-02-15T08:41:38.718Z,3.10
2023-02-15T08:42:38.718Z,2.91
2023-02-15T08:43:38.647Z,3.17
2023-02-15T08:46:26.649Z,3.22
2023-02-15T08:47:26.610Z,3.86
2023-02-15T08:48:26.596Z,3.66
2023-02-15T08:49:26.577Z,2.92
2023-02-15T08:50:26.563Z,3.51
2023-02-15T08:51:26.537Z,3.49
2023-02-15T08:52:26.527Z,3.68
2023-02-15T08:53:26.527Z,3.39
2023-02-15T08:54:26.585Z,3.41
2023-02-15T08:55:26.611Z,3.13
2023-02-15T08:56:26.656Z,3.61
2023-02-15T08:57:26.689Z,2.68
2023-02-15T08:58:26.758Z,4.12
2023-02-15T08:59:26.777Z,3.47
2023-02-15T09:00:26.894Z,3.78
2023-02-15T09:01:26.941Z,3.76
2023-02-15T09:02:26.937Z,3.44
2023-02-15T09:03:26.940Z,3.91
2023-02-15T09:04:26.995Z,4.22
2023-02-15T09:05:27.015Z,3.70
2023-02-15T09:06:27.056Z,3.84
2023-02-15T09:07:27.096Z,3.66
2023-02-15T09:08:27.153Z,3.65
2023-02-15T09:09:27.226Z,3.82
2023-02-15T09:10:27.232Z,3.40
2023-02-15T09:11:27.269Z,4.00
2023-02-15T09:12:27.299Z,4.12
2023-02-15T09:13:27.342Z,3.43
2023-02-15T09:14:27.420Z,4.03
2023-02-15T09:15:27.427Z,3.16
2023-02-15T09:16:27.540Z,3.76
2023-02-15T09:17:27.489Z,4.11
2023-02-15T09:18:27.540Z,3.09
2023-02-15T09:19:27.578Z,3.60
2023-02-15T09:20:27.597Z,3.78
2023-02-15T09:21:27.647Z,3.45
2023-02-15T09:22:27.701Z,3.88
2023-02-15T09:23:27.752Z,3.76
2023-02-15T09:24:27.739Z,4.13
2023-02-15T09:25:27.766Z,3.88
2023-02-15T09:26:27.806Z,3.85
2023-02-15T09:27:27.835Z,3.28
2023-02-15T09:28:27.862Z,3.56
2023-02-15T09:29:27.912Z,3.52
2023-02-15T09:30:28.129Z,3.03
2023-02-15T09:31:28.150Z,3.51
2023-02-15T09:32:28.015Z,3.89
2023-02-15T09:33:28.037Z,3.51
2023-02-15T09:34:28.077Z,3.63
2023-02-15T09:35:28.091Z,3.98
2023-02-15T09:36:28.153Z,3.59
2023-02-15T09:37:28.182Z,3.39
2023-02-15T09:38:28.207Z,3.41
2023-02-15T09:39:28.233Z,3.38
2023-02-15T09:40:28.256Z,3.68
2023-02-15T09:41:28.293Z,3.67
2023-02-15T09:42:28.324Z,3.53
2023-02-15T09:43:28.358Z,3.88
2023-02-15T09:44:28.396Z,3.19
2023-02-15T09:45:28.432Z,3.73
2023-02-15T09:46:28.469Z,3.28
2023-02-15T09:47:28.502Z,3.59
2023-02-15T09:48:28.563Z,3.93
2023-02-15T09:49:28.572Z,3.42
2023-02-15T09:50:28.688Z,3.72
2023-02-15T09:51:28.678Z,3.73
2023-02-15T09:52:28.727Z,3.22
2023-02-15T09:53:28.757Z,3.46
2023-02-15T09:54:28.811Z,3.35
2023-02-15T09:55:28.860Z,3.51
2023-02-15T09:56:28.903Z,3.77
2023-02-15T09:57:28.949Z,3.72
2023-02-15T09:58:29.019Z,3.56
2023-02-15T09:59:29.041Z,3.86
2023-02-15T10:00:29.084Z,3.46
2023-02-15T10:01:29.190Z,3.43
2023-02-15T10:02:29.178Z,3.42
2023-02-15T10:03:29.224Z,3.08
2023-02-15T10:04:29.316Z,3.30
2023-02-15T10:05:29.320Z,3.42
2023-02-15T10:06:29.366Z,3.00
2023-02-15T10:07:29.388Z,3.64
2023-02-15T10:08:29.439Z,3.55
2023-02-15T10:09:29.477Z,3.22
2023-02-15T10:10:29.545Z,2.90
2023-02-15T10:11:29.576Z,3.02
2023-02-15T10:12:29.606Z,3.48
2023-02-15T10:13:29.670Z,3.22
2023-02-15T10:14:29.685Z,3.29
2023-02-15T10:15:29.722Z,3.02
2023-02-15T10:16:29.806Z,2.85
2023-02-15T10:17:29.781Z,2.99
2023-02-15T10:18:29.803Z,3.30
2023-02-15T10:19:29.826Z,3.05
2023-02-15T10:20:29.848Z,3.17
2023-02-15T10:21:29.867Z,2.81
2023-02-15T10:22:29.895Z,3.11
2023-02-15T10:23:29.936Z,2.92
2023-02-15T10:24:29.941Z,3.03
2023-02-15T10:25:29.948Z,2.72
2023-02-15T10:26:29.976Z,2.84
2023-02-15T10:27:30.002Z,3.25
2023-02-15T10:28:30.020Z,2.89
2023-02-15T10:29:30.042Z,3.11
2023-02-15T10:30:32.444Z,2.49
2023-02-15T10:31:30.117Z,2.50
2023-02-15T10:32:29.995Z,2.99
2023-02-15T10:33:29.952Z,2.94
2023-02-15T10:34:29.917Z,2.71
2023-02-15T10:35:29.896Z,3.02
2023-02-15T10:36:29.853Z,3.04
2023-02-15T10:37:29.828Z,2.99
2023-02-15T10:38:29.782Z,2.80
2023-02-15T10:39:29.753Z,3.00
2023-02-15T10:40:29.729Z,2.80
2023-02-15T10:41:29.757Z,3.25
2023-02-15T10:42:29.655Z,3.03
2023-02-15T10:43:29.620Z,3.61
2023-02-15T10:44:29.591Z,3.58
2023-02-15T10:45:29.567Z,3.26
2023-02-15T10:46:29.554Z,3.30
2023-02-15T10:47:29.526Z,3.46
2023-02-15T10:48:29.447Z,3.29
2023-02-15T10:49:29.401Z,3.26
2023-02-15T10:50:29.394Z,3.43
2023-02-15T10:51:29.330Z,3.74
2023-02-15T10:52:29.291Z,3.10
2023-02-15T10:53:29.258Z,3.52
2023-02-15T10:54:29.229Z,3.18
2023-02-15T10:55:29.192Z,2.75
2023-02-15T10:56:29.140Z,3.08
2023-02-15T10:57:29.096Z,3.02
2023-02-15T10:58:29.072Z,2.98
2023-02-15T10:59:29.029Z,3.23
2023-02-15T11:00:29.007Z,2.63
2023-02-15T11:01:28.997Z,2.76
2023-02-15T11:02:28.905Z,2.89
2023-02-15T11:03:28.875Z,3.22
2023-02-15T11:04:28.884Z,2.72
2023-02-15T11:05:28.780Z,2.89
2023-02-15T11:06:28.746Z,2.98
2023-02-15T11:07:28.700Z,3.09
2023-02-15T11:08:28.670Z,2.81
2023-02-15T11:09:28.639Z,2.61
2023-02-15T11:10:28.574Z,2.64
2023-02-15T11:11:28.546Z,2.67
2023-02-15T11:12:28.510Z,2.69
2023-02-15T11:13:28.477Z,2.59
2023-02-15T11:14:28.412Z,2.72
2023-02-15T11:15:28.497Z,2.94
2023-02-15T11:16:28.334Z,2.90
2023-02-15T11:17:28.280Z,2.40
2023-02-15T11:18:28.244Z,2.91
2023-02-15T11:19:28.188Z,2.84
2023-02-15T11:20:28.145Z,2.53
2023-02-15T11:21:28.129Z,2.87
2023-02-15T11:22:28.077Z,2.50
2023-02-15T11:23:28.053Z,3.12
2023-02-15T11:24:27.983Z,2.80
2023-02-15T11:25:27.944Z,2.87
2023-02-15T11:26:27.917Z,2.97
2023-02-15T11:27:27.945Z,2.48
2023-02-15T11:28:27.821Z,2.32
2023-02-15T11:29:27.792Z,2.47
2023-02-15T11:30:27.809Z,2.53
2023-02-15T11:31:27.802Z,2.28
2023-02-15T11:32:27.664Z,2.62
2023-02-15T11:33:27.599Z,2.83
2023-02-15T11:34:27.551Z,2.56
2023-02-15T11:35:27.515Z,2.22
2023-02-15T11:36:27.520Z,2.66
2023-02-15T11:37:27.460Z,2.56
2023-02-15T11:38:27.387Z,2.39
2023-02-15T11:39:27.356Z,2.94
2023-02-15T11:40:27.289Z,2.36
2023-02-15T11:41:27.254Z,2.44
2023-02-15T11:42:27.190Z,2.35
2023-02-15T11:43:27.156Z,2.36
2023-02-15T11:44:27.086Z,2.61
2023-02-15T11:45:27.054Z,2.38
2023-02-15T11:46:27.079Z,2.07
2023-02-15T11:47:26.955Z,1.80
2023-02-15T11:48:26.921Z,1.90
2023-02-15T11:49:26.886Z,2.12
2023-02-15T11:50:26.826Z,2.25
2023-02-15T11:51:26.761Z,2.86
2023-02-15T11:52:26.729Z,3.27
2023-02-15T11:53:26.686Z,2.64
2023-02-15T11:54:26.659Z,2.61
2023-02-15T11:55:26.591Z,2.57
2023-02-15T11:56:26.561Z,2.46
2023-02-15T11:57:26.512Z,2.84
2023-02-15T11:58:26.463Z,2.67
2023-02-15T11:59:26.631Z,2.79
2023-02-15T12:00:26.399Z,2.66
2023-02-15T12:01:26.336Z,2.48
2023-02-15T12:02:26.473Z,2.71
2023-02-15T12:03:26.266Z,2.84
2023-02-15T12:04:26.225Z,2.32
2023-02-15T12:05:26.168Z,2.72
2023-02-15T12:06:26.131Z,2.32
2023-02-15T12:07:26.083Z,2.77
2023-02-15T12:08:26.033Z,2.69
2023-02-15T12:09:25.970Z,2.21
2023-02-15T12:10:25.930Z,2.15
2023-02-15T12:11:25.886Z,2.50
2023-02-15T12:12:25.841Z,2.12
2023-02-15T12:13:25.803Z,2.63
2023-02-15T12:14:25.766Z,2.46
2023-02-15T12:15:25.705Z,2.21
2023-02-15T12:16:25.722Z,2.34
2023-02-15T12:17:25.638Z,2.11
2023-02-15T12:18:25.572Z,2.63
2023-02-15T12:19:25.536Z,2.23
2023-02-15T12:20:25.473Z,2.03
2023-02-15T12:21:27.508Z,2.19
2023-02-15T12:22:25.411Z,2.09
2023-02-15T12:23:25.329Z,2.19
2023-02-15T12:24:25.278Z,1.92
2023-02-15T12:25:25.242Z,2.12
2023-02-15T12:26:25.191Z,2.50
2023-02-15T12:27:25.148Z,1.92
2023-02-15T12:28:25.103Z,2.14
2023-02-15T12:29:25.043Z,2.14
2023-02-15T12:30:25.054Z,2.32
2023-02-15T12:31:25.040Z,2.39
2023-02-15T12:32:24.958Z,2.42
2023-02-15T12:33:24.870Z,2.31
2023-02-15T12:34:24.870Z,1.92
2023-02-15T12:35:24.871Z,2.39
2023-02-15T12:36:24.889Z,1.97
2023-02-15T12:37:24.889Z,2.28
2023-02-15T12:38:24.892Z,2.00
2023-02-15T12:39:24.909Z,2.09
2023-02-15T12:40:24.928Z,1.77
2023-02-15T12:41:24.951Z,2.37
2023-02-15T12:42:24.949Z,1.85
2023-02-15T12:43:24.959Z,2.52
2023-02-15T12:44:24.964Z,1.82
2023-02-15T12:45:24.977Z,2.31
2023-02-15T12:46:25.020Z,2.06
2023-02-15T12:47:28.969Z,2.30
2023-02-15T12:48:24.955Z,2.10
2023-02-15T12:49:24.898Z,2.40
2023-02-15T12:50:24.840Z,1.92
2023-02-15T12:51:24.789Z,2.36
2023-02-15T12:52:24.762Z,1.96
2023-02-15T12:53:24.702Z,1.91
2023-02-15T12:54:24.639Z,2.21
2023-02-15T12:55:24.618Z,1.81
2023-02-15T12:56:24.544Z,1.86
2023-02-15T12:57:24.502Z,2.00
2023-02-15T12:58:24.458Z,2.05
2023-02-15T12:59:24.394Z,1.85
2023-02-15T13:00:24.331Z,1.76
2023-02-15T13:01:24.361Z,1.88
2023-02-15T13:02:24.508Z,2.07
2023-02-15T13:03:24.181Z,1.81
2023-02-15T13:04:24.133Z,2.17
2023-02-15T13:05:24.083Z,2.21
2023-02-15T13:06:24.091Z,1.89
2023-02-15T13:07:23.995Z,2.16
2023-02-15T13:08:23.928Z,1.63
2023-02-15T13:09:23.881Z,1.70
2023-02-15T13:10:23.844Z,1.91
2023-02-15T13:11:23.775Z,1.47
2023-02-15T13:12:23.729Z,2.08
2023-02-15T13:13:23.712Z,1.78
2023-02-15T13:14:23.639Z,1.62
2023-02-15T13:15:23.586Z,1.61
2023-02-15T13:16:23.566Z,1.41
2023-02-15T13:17:23.486Z,1.85
2023-02-15T13:18:23.462Z,1.52
2023-02-15T13:19:23.408Z,1.78
2023-02-15T13:20:23.356Z,1.83